Time;durP1;ratioP1;P1;durP2;ratioP2;P2;SDS_P1;SDS_P2;PMS_P1;PMS_P2;Temp;Humidity;BMP_temperature;BMP_pressure;BME280_temperature;BME280_humidity;BME280_pressure;Samples;Min_cycle;Max_cycle;Signal;HPM_P1;HPM_P2
2023/09/15 00:02:26;;;;;;;;;3.75;3.75;;;;;11.60;74.79;100344.34;5078456;28;8826;-59
2023/09/15 00:04:54;;;;;;;;;1.00;1.00;;;;;11.58;74.12;100346.25;5080767;28;8836;-59
2023/09/15 00:07:21;;;;;;;;;3.00;3.00;;;;;11.56;74.81;100343.69;5097595;28;8853;-59
2023/09/15 00:09:49;;;;;;;;;3.00;1.00;;;;;11.54;74.51;100356.28;5087652;28;8826;-58
2023/09/15 00:12:17;;;;;;;;;1.00;1.00;;;;;11.54;74.45;100352.78;5079225;28;8985;-56
2023/09/15 00:14:46;;;;;;;;;1.00;1.00;;;;;11.52;74.75;100346.72;5078493;28;8949;-56
2023/09/15 00:17:14;;;;;;;;;3.75;3.75;;;;;11.51;74.92;100353.03;5078881;28;8854;-56
2023/09/15 00:19:41;;;;;;;;;3.00;3.00;;;;;11.49;74.23;100353.13;5087458;28;8826;-57
2023/09/15 00:22:09;;;;;;;;;3.00;3.00;;;;;11.49;74.52;100361.13;5097162;28;9529;-59
2023/09/15 00:24:37;;;;;;;;;3.75;3.00;;;;;11.50;74.97;100354.81;5080040;28;8864;-56
2023/09/15 00:27:05;;;;;;;;;2.50;2.50;;;;;11.50;74.29;100349.50;5078658;28;8826;-56
2023/09/15 00:29:32;;;;;;;;;3.00;3.00;;;;;11.46;74.46;100357.84;5077090;28;8849;-57
2023/09/15 00:32:00;;;;;;;;;3.50;3.00;;;;;11.40;74.34;100355.66;5089655;28;9511;-59
2023/09/15 00:34:27;;;;;;;;;3.75;3.50;;;;;11.34;74.92;100354.31;5096490;28;8834;-59
2023/09/15 00:36:55;;;;;;;;;1.00;0.00;;;;;11.30;74.99;100347.50;5096473;28;8814;-57
2023/09/15 00:39:24;;;;;;;;;1.00;1.00;;;;;11.27;75.00;100349.53;5095099;28;8829;-57
2023/09/15 00:41:52;;;;;;;;;1.75;0.75;;;;;11.25;74.99;100352.34;5096071;28;8834;-57
2023/09/15 00:44:19;;;;;;;;;1.00;1.00;;;;;11.23;75.04;100346.25;5095966;28;8826;-58
2023/09/15 00:46:47;;;;;;;;;2.00;1.00;;;;;11.22;75.10;100339.22;5096049;28;8857;-56
2023/09/15 00:49:15;;;;;;;;;3.25;3.25;;;;;11.18;74.73;100336.91;5096089;28;10185;-59
2023/09/15 00:51:43;;;;;;;;;3.00;3.00;;;;;11.17;74.60;100336.09;5096120;28;8842;-59
2023/09/15 00:54:12;;;;;;;;;3.00;2.00;;;;;11.16;74.91;100339.69;5096089;28;8830;-59
2023/09/15 00:56:39;;;;;;;;;3.00;1.00;;;;;11.16;74.98;100341.53;5096238;28;8955;-59
2023/09/15 00:59:07;;;;;;;;;3.00;3.00;;;;;11.16;75.00;100338.84;5095509;28;8806;-59
2023/09/15 01:01:35;;;;;;;;;6.00;4.00;;;;;11.17;74.92;100340.56;5095513;28;8898;-56
2023/09/15 01:04:04;;;;;;;;;4.00;4.00;;;;;11.15;74.81;100332.66;5096440;28;9531;-57
2023/09/15 01:06:32;;;;;;;;;3.50;3.50;;;;;11.17;74.28;100329.88;5095860;28;8877;-57
2023/09/15 01:09:02;;;;;;;;;2.50;1.00;;;;;11.14;74.75;100325.63;5095580;28;8798;-59
2023/09/15 01:11:31;;;;;;;;;4.00;3.25;;;;;11.11;74.92;100325.88;5095912;28;8818;-58
2023/09/15 01:13:59;;;;;;;;;1.50;1.00;;;;;11.07;75.14;100319.06;5094975;28;9515;-57
2023/09/15 01:16:26;;;;;;;;;3.50;3.00;;;;;11.05;75.18;100309.47;5095198;28;8845;-57
2023/09/15 01:18:54;;;;;;;;;3.00;3.00;;;;;11.04;74.88;100310.44;5095725;28;9471;-56
2023/09/15 01:21:22;;;;;;;;;1.50;1.00;;;;;11.01;74.95;100311.53;5095380;28;8836;-57
2023/09/15 01:23:49;;;;;;;;;1.00;1.00;;;;;11.00;74.99;100306.34;5095765;28;8860;-59
2023/09/15 01:26:17;;;;;;;;;2.00;1.00;;;;;10.97;74.93;100301.22;5095677;28;8837;-58
2023/09/15 01:28:45;;;;;;;;;3.25;3.00;;;;;10.93;75.07;100297.09;5095363;28;9518;-59
2023/09/15 01:31:13;;;;;;;;;1.50;0.75;;;;;10.89;75.06;100301.81;5095031;28;8866;-58
2023/09/15 01:33:40;;;;;;;;;3.00;3.00;;;;;10.89;75.13;100308.94;5095640;28;8833;-56
2023/09/15 01:36:08;;;;;;;;;0.25;0.25;;;;;10.89;75.25;100303.63;5094654;28;8856;-57
2023/09/15 01:38:36;;;;;;;;;3.50;3.00;;;;;10.87;75.24;100303.75;5085956;28;8845;-55
2023/09/15 01:41:04;;;;;;;;;3.25;3.00;;;;;10.86;74.87;100298.53;5077333;28;8842;-56
2023/09/15 01:43:31;;;;;;;;;4.00;3.00;;;;;10.85;75.06;100297.66;5076611;28;8856;-58
2023/09/15 01:45:59;;;;;;;;;1.50;1.50;;;;;10.84;74.77;100298.63;5076066;28;8870;-56
2023/09/15 01:48:27;;;;;;;;;2.50;2.50;;;;;10.83;75.31;100307.59;5081866;28;8834;-59
2023/09/15 01:50:54;;;;;;;;;3.00;3.00;;;;;10.84;74.85;100301.28;5095325;28;8825;-58
2023/09/15 01:53:22;;;;;;;;;1.00;1.00;;;;;10.84;74.99;100303.97;5086246;28;8814;-58
2023/09/15 01:55:50;;;;;;;;;1.00;1.00;;;;;10.81;75.39;100306.00;5075957;28;8829;-55
2023/09/15 01:58:18;;;;;;;;;1.00;1.00;;;;;10.76;74.84;100308.19;5076408;28;9234;-56
2023/09/15 02:00:46;;;;;;;;;1.00;1.00;;;;;10.71;75.41;100297.84;5076258;28;8826;-56
2023/09/15 02:03:14;;;;;;;;;3.00;3.00;;;;;10.64;75.21;100301.94;5075981;28;8822;-55
2023/09/15 02:05:42;;;;;;;;;3.00;3.00;;;;;10.60;75.26;100295.13;5092128;28;8791;-57
2023/09/15 02:08:10;;;;;;;;;1.00;1.00;;;;;10.57;75.58;100290.06;5094296;28;8830;-57
2023/09/15 02:10:37;;;;;;;;;2.50;1.00;;;;;10.54;75.43;100294.75;5085764;28;8898;-57
2023/09/15 02:13:05;;;;;;;;;4.00;3.00;;;;;10.50;75.72;100291.47;5075655;28;8864;-57
2023/09/15 02:15:33;;;;;;;;;1.50;1.50;;;;;10.49;75.64;100300.41;5074945;28;8954;-59
2023/09/15 02:18:01;;;;;;;;;3.25;2.00;;;;;10.47;75.76;100301.50;5090956;28;8822;-57
2023/09/15 02:20:30;;;;;;;;;1.00;1.00;;;;;10.46;75.45;100303.28;5094850;28;8842;-59
2023/09/15 02:23:03;;;;;;;;;2.00;2.00;;;;;10.42;75.41;100299.16;5094453;28;8861;-59
2023/09/15 02:25:31;;;;;;;;;1.00;0.00;;;;;10.39;75.59;100296.72;5094870;28;8863;-56
2023/09/15 02:27:59;;;;;;;;;0.75;0.75;;;;;10.36;75.74;100299.63;5094564;28;8814;-56
2023/09/15 02:30:27;;;;;;;;;4.00;3.00;;;;;10.35;75.24;100297.91;5094965;28;8837;-58
2023/09/15 02:32:54;;;;;;;;;0.00;0.00;;;;;10.33;75.92;100296.31;5094892;28;8836;-59
2023/09/15 02:35:22;;;;;;;;;3.00;3.00;;;;;10.32;76.15;100284.81;5094633;28;8937;-56
2023/09/15 02:37:50;;;;;;;;;3.25;2.75;;;;;10.31;75.60;100284.94;5094592;28;8872;-56
2023/09/15 02:40:18;;;;;;;;;3.00;1.50;;;;;10.29;75.88;100287.72;5094699;28;8826;-57
2023/09/15 02:42:45;;;;;;;;;1.50;1.50;;;;;10.27;75.97;100294.97;5094357;28;8822;-56
2023/09/15 02:45:13;;;;;;;;;3.00;3.00;;;;;10.26;76.20;100279.09;5094486;28;8818;-58
2023/09/15 02:47:40;;;;;;;;;0.50;0.50;;;;;10.25;76.23;100283.56;5095046;28;8822;-59
2023/09/15 02:50:08;;;;;;;;;3.50;2.00;;;;;10.25;75.69;100280.06;5094472;28;8818;-57
2023/09/15 02:52:36;;;;;;;;;2.50;1.00;;;;;10.23;75.65;100280.16;5094657;28;8818;-57
2023/09/15 02:55:05;;;;;;;;;1.00;1.00;;;;;10.22;75.65;100278.47;5094473;28;8829;-56
2023/09/15 02:57:33;;;;;;;;;3.25;3.25;;;;;10.19;75.81;100284.03;5094488;28;9493;-56
2023/09/15 03:00:00;;;;;;;;;3.75;3.75;;;;;10.15;75.68;100279.88;5093948;28;8830;-57
2023/09/15 03:02:28;;;;;;;;;0.50;0.50;;;;;10.14;76.17;100279.97;5095297;28;9522;-58
2023/09/15 03:04:56;;;;;;;;;1.00;1.00;;;;;10.14;75.86;100272.00;5098779;28;8899;-56
2023/09/15 03:07:24;;;;;;;;;2.00;2.00;;;;;10.14;75.86;100272.84;5098619;28;8802;-56
2023/09/15 03:09:51;;;;;;;;;3.00;3.00;;;;;10.15;76.01;100269.22;5098963;28;8900;-58
2023/09/15 03:12:20;;;;;;;;;3.50;1.50;;;;;10.18;75.52;100269.00;5097635;28;8811;-57
2023/09/15 03:14:48;;;;;;;;;3.50;3.00;;;;;10.21;75.84;100262.59;5098345;28;8799;-57
2023/09/15 03:17:17;;;;;;;;;3.50;3.50;;;;;10.22;75.65;100265.16;5098797;28;8838;-57
2023/09/15 03:19:45;;;;;;;;;3.00;2.00;;;;;10.23;75.35;100256.22;5098386;28;8976;-58
2023/09/15 03:22:12;;;;;;;;;3.00;3.00;;;;;10.23;75.51;100258.03;5098674;28;8846;-58
2023/09/15 03:24:42;;;;;;;;;2.00;2.00;;;;;10.21;75.37;100258.16;5098525;28;8818;-56
2023/09/15 03:27:10;;;;;;;;;1.00;1.00;;;;;10.20;75.48;100256.44;5097642;28;9543;-58
2023/09/15 03:29:38;;;;;;;;;3.00;3.00;;;;;10.17;75.38;100259.31;5098309;28;8837;-57
2023/09/15 03:32:06;;;;;;;;;3.00;3.00;;;;;10.12;75.72;100253.50;5097995;28;8849;-57
2023/09/15 03:34:33;;;;;;;;;4.50;4.00;;;;;10.09;76.42;100252.88;5098185;28;8829;-56
2023/09/15 03:37:01;;;;;;;;;2.00;1.00;;;;;10.06;75.66;100253.94;5097711;28;8822;-59
2023/09/15 03:39:29;;;;;;;;;0.50;0.50;;;;;10.03;75.72;100261.28;5098227;28;8806;-58
2023/09/15 03:41:57;;;;;;;;;4.00;3.00;;;;;10.01;75.91;100258.69;5098079;28;8834;-56
2023/09/15 03:44:25;;;;;;;;;3.00;3.00;;;;;9.99;76.08;100252.66;5097929;28;8826;-58
2023/09/15 03:46:52;;;;;;;;;3.00;3.00;;;;;9.97;75.99;100251.91;5097842;28;8854;-58
2023/09/15 03:49:20;;;;;;;;;1.00;1.00;;;;;9.96;76.16;100252.84;5097868;28;8818;-59
2023/09/15 03:51:48;;;;;;;;;0.75;0.75;;;;;9.97;75.99;100243.06;5097520;28;8834;-56
2023/09/15 03:54:15;;;;;;;;;0.50;0.50;;;;;9.96;76.08;100244.88;5097632;28;8850;-57
2023/09/15 03:56:43;;;;;;;;;4.50;4.50;;;;;9.91;76.35;100241.72;5097470;28;9487;-56
2023/09/15 03:59:11;;;;;;;;;1.00;1.00;;;;;9.87;76.20;100237.56;5096734;28;8814;-55
2023/09/15 04:01:39;;;;;;;;;1.00;1.00;;;;;9.82;76.20;100237.06;5097329;28;8814;-57
2023/09/15 04:04:07;;;;;;;;;2.00;2.00;;;;;9.79;76.12;100237.25;5097586;28;8841;-59
2023/09/15 04:06:35;;;;;;;;;2.00;2.00;;;;;9.76;76.30;100240.16;5096056;28;8834;-55
2023/09/15 04:09:07;;;;;;;;;2.00;2.00;;;;;9.74;76.44;100239.41;5096410;28;8960;-57
2023/09/15 04:11:36;;;;;;;;;2.00;1.00;;;;;9.75;76.21;100240.25;5096930;28;8864;-56
2023/09/15 04:14:04;;;;;;;;;3.50;1.00;;;;;9.76;76.46;100240.16;5096331;28;8814;-57
2023/09/15 04:16:31;;;;;;;;;0.50;0.00;;;;;9.79;75.95;100245.25;5096776;28;8826;-57
2023/09/15 04:18:59;;;;;;;;;0.00;0.00;;;;;9.77;76.18;100247.16;5097120;28;8829;-58
2023/09/15 04:21:27;;;;;;;;;1.00;1.00;;;;;9.79;76.13;100241.75;5097257;28;8894;-57
2023/09/15 04:23:55;;;;;;;;;2.00;1.00;;;;;9.80;76.14;100244.28;5096896;28;8858;-56
2023/09/15 04:26:23;;;;;;;;;3.00;3.00;;;;;9.81;76.06;100245.13;5096649;28;8834;-58
2023/09/15 04:28:50;;;;;;;;;2.50;2.50;;;;;9.82;75.86;100239.72;5097322;28;8818;-56
2023/09/15 04:31:18;;;;;;;;;3.00;3.00;;;;;9.85;75.76;100250.13;5097265;28;8822;-56
2023/09/15 04:33:48;;;;;;;;;3.25;3.00;;;;;9.86;75.49;100246.50;5096971;28;8844;-59
2023/09/15 04:36:16;;;;;;;;;3.25;3.00;;;;;9.88;76.14;100241.91;5096601;28;8834;-57
2023/09/15 04:38:43;;;;;;;;;2.50;2.50;;;;;9.89;75.78;100243.63;5096475;28;8924;-59
2023/09/15 04:41:11;;;;;;;;;3.00;3.00;;;;;9.89;75.82;100243.63;5096433;28;8923;-58
2023/09/15 04:43:39;;;;;;;;;2.00;1.00;;;;;9.89;75.67;100240.13;5096017;28;8834;-59
2023/09/15 04:46:07;;;;;;;;;3.00;3.00;;;;;9.88;75.72;100249.06;5095919;28;8846;-59
2023/09/15 04:48:35;;;;;;;;;3.00;3.00;;;;;9.88;75.88;100239.25;5096185;28;8843;-59
2023/09/15 04:51:02;;;;;;;;;1.50;1.50;;;;;9.87;75.79;100247.38;5096087;28;8840;-59
2023/09/15 04:53:30;;;;;;;;;0.00;0.00;;;;;9.86;76.01;100240.34;5096469;28;8810;-58
2023/09/15 04:55:58;;;;;;;;;4.50;4.00;;;;;9.83;76.07;100244.06;5096391;28;9468;-59
2023/09/15 04:58:25;;;;;;;;;2.50;1.50;;;;;9.83;75.87;100236.09;5096109;28;8833;-59
2023/09/15 05:00:54;;;;;;;;;1.00;1.00;;;;;9.82;75.76;100239.72;5096197;28;8841;-56
2023/09/15 05:03:23;;;;;;;;;2.00;2.00;;;;;9.81;76.06;100245.13;5096622;28;8822;-56
2023/09/15 05:05:50;;;;;;;;;3.00;3.00;;;;;9.77;75.72;100244.50;5096136;28;8887;-57
2023/09/15 05:08:18;;;;;;;;;1.50;1.00;;;;;9.74;76.08;100242.09;5095289;28;8830;-57
2023/09/15 05:10:46;;;;;;;;;3.50;3.00;;;;;9.72;76.05;100246.63;5094490;28;8821;-58
2023/09/15 05:13:14;;;;;;;;;3.00;3.00;;;;;9.72;75.92;100254.63;5094622;28;8818;-57
2023/09/15 05:15:41;;;;;;;;;3.00;1.00;;;;;9.69;75.93;100246.88;5094669;28;8838;-57
2023/09/15 05:18:09;;;;;;;;;3.50;3.50;;;;;9.67;76.08;100255.91;5094529;28;8964;-58
2023/09/15 05:20:37;;;;;;;;;2.00;2.00;;;;;9.65;75.71;100252.50;5094803;28;8870;-56
2023/09/15 05:23:05;;;;;;;;;1.00;1.00;;;;;9.62;76.21;100253.56;5095296;28;9569;-57
2023/09/15 05:25:32;;;;;;;;;3.00;3.00;;;;;9.61;76.45;100257.19;5094012;28;8822;-57
2023/09/15 05:28:01;;;;;;;;;2.50;2.50;;;;;9.60;76.30;100250.19;5093907;28;8822;-59
2023/09/15 05:30:29;;;;;;;;;0.00;0.00;;;;;9.61;76.06;100249.22;5094307;28;8838;-59
2023/09/15 05:32:57;;;;;;;;;2.00;2.00;;;;;9.61;76.49;100246.56;5093810;28;8860;-58
2023/09/15 05:35:25;;;;;;;;;1.00;1.00;;;;;9.64;76.28;100251.66;5094814;28;8830;-59
2023/09/15 05:37:52;;;;;;;;;1.00;1.00;;;;;9.66;76.20;100252.38;5094604;28;8844;-57
2023/09/15 05:40:20;;;;;;;;;3.00;2.00;;;;;9.69;75.48;100253.97;5094898;28;8830;-58
2023/09/15 05:42:48;;;;;;;;;4.00;3.75;;;;;9.72;75.48;100254.63;5094802;28;8916;-59
2023/09/15 05:45:15;;;;;;;;;1.50;1.50;;;;;9.77;75.48;100257.81;5094346;28;8845;-56
2023/09/15 05:47:43;;;;;;;;;4.00;4.00;;;;;9.83;75.84;100252.06;5093272;28;8841;-57
2023/09/15 05:50:11;;;;;;;;;4.00;4.00;;;;;9.91;75.36;100251.50;5093542;28;8826;-58
2023/09/15 05:52:39;;;;;;;;;3.00;2.50;;;;;10.00;75.30;100258.81;5092887;28;8842;-56
2023/09/15 05:55:07;;;;;;;;;3.50;3.50;;;;;10.07;75.04;100250.31;5092207;28;9539;-55
2023/09/15 05:57:36;;;;;;;;;4.00;4.00;;;;;10.15;74.48;100247.94;5091426;28;8854;-55
2023/09/15 06:00:04;;;;;;;;;4.00;3.25;;;;;10.24;74.79;100244.59;5091571;28;8869;-56
2023/09/15 06:02:33;;;;;;;;;4.50;3.25;;;;;10.32;74.80;100241.38;5092183;28;8834;-58
2023/09/15 06:05:01;;;;;;;;;3.75;3.25;;;;;10.40;74.39;100247.00;5091792;28;8870;-58
2023/09/15 06:07:28;;;;;;;;;6.50;6.50;;;;;10.49;74.28;100247.16;5091975;28;8826;-55
2023/09/15 06:09:56;;;;;;;;;4.50;3.75;;;;;10.59;74.23;100248.16;5092120;28;8818;-56
2023/09/15 06:12:24;;;;;;;;;4.00;4.00;;;;;10.67;74.07;100244.91;5092429;28;8956;-58
2023/09/15 06:14:52;;;;;;;;;5.50;4.00;;;;;10.77;73.62;100249.44;5092680;28;8876;-57
2023/09/15 06:17:19;;;;;;;;;6.00;6.00;;;;;10.89;73.60;100251.19;5092942;28;8848;-60
2023/09/15 06:19:47;;;;;;;;;5.00;5.00;;;;;10.98;73.54;100245.16;5093010;28;8844;-57
2023/09/15 06:22:14;;;;;;;;;4.50;4.00;;;;;11.08;73.29;100253.31;5092365;28;8826;-57
2023/09/15 06:24:42;;;;;;;;;3.00;3.00;;;;;11.16;73.41;100251.72;5092445;28;8830;-56
2023/09/15 06:27:10;;;;;;;;;3.00;3.00;;;;;11.26;73.23;100252.75;5092575;28;8984;-56
2023/09/15 06:29:38;;;;;;;;;4.00;4.00;;;;;11.33;72.45;100253.97;5092767;28;8906;-57
2023/09/15 06:32:05;;;;;;;;;3.00;3.00;;;;;11.44;72.42;100245.97;5092522;28;8849;-57
2023/09/15 06:34:33;;;;;;;;;4.50;3.50;;;;;11.55;72.27;100251.31;5093250;28;8880;-56
2023/09/15 06:37:06;;;;;;;;;5.00;5.00;;;;;11.61;72.52;100240.16;5093397;28;8850;-58
2023/09/15 06:39:35;;;;;;;;;4.00;4.00;;;;;11.67;72.57;100234.34;5093624;28;8861;-59
2023/09/15 06:42:04;;;;;;;;;5.00;4.00;;;;;11.74;71.99;100240.91;5093786;28;8847;-59
2023/09/15 06:44:32;;;;;;;;;5.50;5.50;;;;;11.86;72.29;100234.59;5093335;28;8841;-56
2023/09/15 06:47:00;;;;;;;;;6.50;4.50;;;;;11.98;72.34;100224.75;5093187;28;9012;-58
2023/09/15 06:49:28;;;;;;;;;4.00;3.50;;;;;12.13;71.57;100227.88;5093147;28;8855;-56
2023/09/15 06:51:56;;;;;;;;;6.00;6.00;;;;;12.27;71.34;100226.75;5092963;28;8841;-56
2023/09/15 06:54:23;;;;;;;;;5.50;5.00;;;;;12.38;71.40;100222.22;5093352;28;8826;-57
2023/09/15 06:56:51;;;;;;;;;6.00;5.50;;;;;12.51;71.38;100224.72;5092401;28;8837;-56
2023/09/15 06:59:19;;;;;;;;;6.00;6.00;;;;;12.61;70.93;100223.00;5091706;28;8926;-56
2023/09/15 07:01:47;;;;;;;;;9.00;8.50;;;;;12.70;70.77;100227.56;5092375;28;8830;-56
2023/09/15 07:04:15;;;;;;;;;8.00;6.25;;;;;12.82;70.76;100213.16;5092525;28;8822;-58
2023/09/15 07:06:43;;;;;;;;;7.00;6.50;;;;;12.94;70.64;100220.16;5092728;28;8826;-57
2023/09/15 07:09:11;;;;;;;;;6.50;6.50;;;;;13.03;70.64;100219.38;5092516;28;9285;-56
2023/09/15 07:11:39;;;;;;;;;5.00;5.00;;;;;13.12;70.62;100213.25;5092998;28;8968;-58
2023/09/15 07:14:07;;;;;;;;;6.00;4.00;;;;;13.22;70.22;100216.84;5093180;28;8843;-59
2023/09/15 07:16:36;;;;;;;;;4.00;4.00;;;;;13.35;70.25;100220.19;5093418;28;8957;-59
2023/09/15 07:19:04;;;;;;;;;6.00;6.00;;;;;13.47;70.19;100211.06;5093099;28;8846;-55
2023/09/15 07:21:40;;;;;;;;;6.00;5.50;;;;;13.55;69.97;100213.91;5092929;28;8837;-57
2023/09/15 07:24:08;;;;;;;;;4.00;4.00;;;;;13.61;69.77;100208.91;5092584;28;8837;-58
2023/09/15 07:26:36;;;;;;;;;4.00;4.00;;;;;13.72;69.85;100214.13;5092848;28;8838;-58
2023/09/15 07:29:04;;;;;;;;;4.50;4.00;;;;;13.84;69.72;100212.19;5092788;28;8957;-58
2023/09/15 07:31:32;;;;;;;;;6.00;5.00;;;;;13.95;69.60;100212.94;5093486;28;8910;-56
2023/09/15 07:34:00;;;;;;;;;5.00;5.00;;;;;14.06;69.57;100214.66;5092677;28;8985;-57
2023/09/15 07:36:27;;;;;;;;;5.00;5.00;;;;;14.18;68.92;100210.94;5092952;28;8834;-57
2023/09/15 07:38:55;;;;;;;;;3.50;3.00;;;;;14.31;68.59;100216.84;5093112;28;8985;-58
2023/09/15 07:41:24;;;;;;;;;6.50;3.75;;;;;14.48;68.36;100218.88;5092724;28;8895;-56
2023/09/15 07:43:53;;;;;;;;;6.50;5.50;;;;;14.61;68.00;100214.06;5093580;28;8845;-59
2023/09/15 07:46:21;;;;;;;;;7.00;6.75;;;;;14.74;68.03;100210.13;5093001;28;9604;-58
2023/09/15 07:48:49;;;;;;;;;4.50;4.00;;;;;14.84;68.22;100205.59;5094188;28;8841;-57
2023/09/15 07:51:17;;;;;;;;;2.50;2.50;;;;;14.96;68.33;100212.47;5096774;28;8829;-58
2023/09/15 07:53:45;;;;;;;;;7.00;6.50;;;;;15.10;67.68;100209.34;5096847;28;8857;-58
2023/09/15 07:56:13;;;;;;;;;5.00;5.00;;;;;15.21;67.44;100209.22;5096828;28;9491;-57
2023/09/15 07:58:41;;;;;;;;;6.75;6.50;;;;;15.31;67.62;100203.81;5096165;28;9841;-59
2023/09/15 08:01:11;;;;;;;;;7.00;6.75;;;;;15.39;67.59;100193.25;5095953;28;8830;-58
2023/09/15 08:03:39;;;;;;;;;5.50;5.50;;;;;15.48;67.45;100192.34;5096402;28;8846;-59
2023/09/15 08:06:08;;;;;;;;;5.50;5.50;;;;;15.58;67.20;100193.16;5095818;28;8822;-56
2023/09/15 08:08:35;;;;;;;;;3.00;1.50;;;;;15.72;67.39;100187.31;5094811;28;8893;-58
2023/09/15 08:11:03;;;;;;;;;6.00;4.00;;;;;15.86;67.01;100184.94;5094812;28;8834;-59
2023/09/15 08:13:31;;;;;;;;;6.75;6.75;;;;;15.99;66.96;100185.44;5094597;28;8841;-57
2023/09/15 08:15:59;;;;;;;;;8.00;5.00;;;;;16.14;66.44;100188.50;5094801;28;8850;-59
2023/09/15 08:18:27;;;;;;;;;6.00;4.00;;;;;16.27;66.62;100190.63;5095208;28;8848;-57
2023/09/15 08:20:55;;;;;;;;;4.00;4.00;;;;;16.43;66.04;100190.88;5094893;28;8850;-58
2023/09/15 08:23:23;;;;;;;;;6.20;6.20;;;;;16.52;65.89;100189.94;5094687;28;8830;-59
2023/09/15 08:25:51;;;;;;;;;6.40;6.40;;;;;16.62;65.75;100190.69;5094998;28;9878;-59
2023/09/15 08:28:19;;;;;;;;;1.00;1.00;;;;;16.75;65.75;100187.63;5095380;28;8826;-59
2023/09/15 08:30:50;;;;;;;;;4.80;4.40;;;;;16.88;65.99;100188.06;5095384;28;8849;-59
2023/09/15 08:33:18;;;;;;;;;6.60;5.20;;;;;17.00;65.64;100179.59;5094838;28;8817;-57
2023/09/15 08:35:46;;;;;;;;;3.80;3.80;;;;;17.12;65.08;100183.72;5094855;28;8910;-59
2023/09/15 08:38:14;;;;;;;;;6.20;5.80;;;;;17.27;65.05;100182.13;5095145;28;8846;-59
2023/09/15 08:40:42;;;;;;;;;7.00;6.00;;;;;17.42;65.06;100185.97;5095299;28;8834;-60
2023/09/15 08:43:10;;;;;;;;;4.40;4.40;;;;;17.57;64.42;100183.50;5095947;28;8834;-59
2023/09/15 08:45:38;;;;;;;;;4.40;4.40;;;;;17.67;64.62;100186.91;5095542;28;8842;-59
2023/09/15 08:48:06;;;;;;;;;6.60;4.00;;;;;17.79;64.29;100182.94;5095683;28;8944;-60
2023/09/15 08:50:34;;;;;;;;;5.20;5.20;;;;;17.91;64.27;100176.28;5094508;28;8830;-59
2023/09/15 08:53:02;;;;;;;;;6.20;6.20;;;;;18.04;64.06;100174.81;5094972;28;8930;-59
2023/09/15 08:55:30;;;;;;;;;4.00;3.00;;;;;18.13;63.77;100168.41;5094601;28;8814;-58
2023/09/15 08:57:58;;;;;;;;;3.80;3.60;;;;;18.26;63.78;100165.25;5094790;28;8968;-58
2023/09/15 09:00:26;;;;;;;;;4.00;4.00;;;;;18.39;63.35;100169.19;5093193;28;8838;-59
2023/09/15 09:02:56;;;;;;;;;4.40;4.40;;;;;18.52;63.58;100169.53;5094264;28;8845;-59
2023/09/15 09:05:24;;;;;;;;;3.80;3.80;;;;;18.67;63.02;100170.56;5094396;28;8825;-58
2023/09/15 09:07:52;;;;;;;;;3.60;3.60;;;;;18.82;62.51;100168.06;5094296;28;8840;-58
2023/09/15 09:10:20;;;;;;;;;4.40;4.40;;;;;19.00;62.57;100169.56;5094337;28;8822;-59
2023/09/15 09:12:48;;;;;;;;;6.00;6.00;;;;;19.18;62.37;100162.09;5094543;28;8844;-57
2023/09/15 09:15:16;;;;;;;;;3.80;3.80;;;;;19.35;62.11;100154.84;5094501;28;8830;-57
2023/09/15 09:17:44;;;;;;;;;3.40;3.40;;;;;19.59;61.88;100158.34;5094028;28;8964;-59
2023/09/15 09:20:12;;;;;;;;;4.00;4.00;;;;;19.96;61.02;100154.97;5094558;28;8939;-58
2023/09/15 09:22:41;;;;;;;;;3.80;3.80;;;;;20.37;60.28;100149.19;5093936;28;8858;-58
2023/09/15 09:25:09;;;;;;;;;3.00;3.00;;;;;20.58;60.27;100145.81;5093716;28;8840;-58
2023/09/15 09:27:37;;;;;;;;;4.00;3.80;;;;;20.64;60.31;100145.91;5094077;28;8862;-59
2023/09/15 09:30:05;;;;;;;;;4.00;2.20;;;;;20.63;60.20;100144.25;5093706;28;8834;-58
2023/09/15 09:32:33;;;;;;;;;4.20;3.60;;;;;20.57;60.50;100150.41;5094253;28;8972;-58
2023/09/15 09:35:01;;;;;;;;;2.60;1.80;;;;;20.51;60.68;100147.56;5093552;28;8838;-59
2023/09/15 09:37:29;;;;;;;;;3.60;3.20;;;;;20.48;60.93;100139.81;5093877;28;9490;-57
2023/09/15 09:39:57;;;;;;;;;2.00;2.00;;;;;20.51;60.70;100140.28;5093165;28;8841;-58
2023/09/15 09:42:24;;;;;;;;;3.60;3.60;;;;;20.59;60.78;100137.53;5093391;28;8838;-58
2023/09/15 09:44:53;;;;;;;;;4.20;4.20;;;;;20.66;60.74;100132.22;5093814;28;9531;-57
2023/09/15 09:47:20;;;;;;;;;4.00;4.00;;;;;20.77;60.47;100139.94;5093770;28;8841;-57
2023/09/15 09:49:48;;;;;;;;;2.00;2.00;;;;;20.97;60.20;100131.97;5092977;28;9626;-58
2023/09/15 09:52:16;;;;;;;;;4.20;3.60;;;;;21.30;59.92;100135.19;5093062;28;8838;-58
2023/09/15 09:54:44;;;;;;;;;3.20;2.80;;;;;21.71;59.49;100131.03;5092888;28;8830;-57
2023/09/15 09:57:12;;;;;;;;;4.60;4.00;;;;;22.27;58.13;100132.97;5093505;28;8854;-58
2023/09/15 09:59:40;;;;;;;;;2.40;2.40;;;;;22.88;56.82;100132.34;5093652;28;8841;-58
2023/09/15 10:02:08;;;;;;;;;2.40;2.40;;;;;23.51;56.49;100121.38;5093550;28;8838;-58
2023/09/15 10:04:36;;;;;;;;;7.00;5.40;;;;;24.35;55.09;100113.59;5092506;28;8830;-58
2023/09/15 10:07:04;;;;;;;;;4.80;4.00;;;;;25.36;53.52;100113.25;5092312;28;8842;-58
2023/09/15 10:09:32;;;;;;;;;2.00;2.00;;;;;26.36;51.43;100115.22;5092423;28;8822;-59
2023/09/15 10:12:00;;;;;;;;;4.00;4.00;;;;;27.16;50.43;100118.06;5092292;28;8833;-59
2023/09/15 10:14:28;;;;;;;;;3.00;2.80;;;;;27.88;49.70;100108.06;5093399;28;8833;-58
2023/09/15 10:16:55;;;;;;;;;3.00;2.40;;;;;28.43;48.79;100109.66;5093868;28;8858;-58
2023/09/15 10:19:24;;;;;;;;;3.00;3.00;;;;;28.82;48.57;100106.31;5093254;28;8837;-58
2023/09/15 10:21:52;;;;;;;;;3.00;3.00;;;;;28.99;48.59;100103.75;5092164;28;8846;-58
2023/09/15 10:24:20;;;;;;;;;2.00;2.00;;;;;28.91;49.71;100101.31;5092715;28;9492;-58
2023/09/15 10:26:48;;;;;;;;;2.60;2.00;;;;;28.79;50.12;100098.56;5092330;28;8951;-58
2023/09/15 10:29:15;;;;;;;;;2.60;2.60;;;;;28.51;50.30;100100.28;5090986;28;8826;-58
2023/09/15 10:31:43;;;;;;;;;3.00;3.00;;;;;28.00;51.89;100097.97;5090559;28;8964;-58
2023/09/15 10:34:11;;;;;;;;;2.80;2.60;;;;;27.65;52.24;100104.28;5090825;28;8826;-58
2023/09/15 10:36:39;;;;;;;;;2.80;2.00;;;;;27.26;53.07;100096.50;5091086;28;8834;-58
2023/09/15 10:39:07;;;;;;;;;3.00;2.40;;;;;26.87;53.54;100099.56;5091426;28;8852;-58
2023/09/15 10:41:35;;;;;;;;;2.00;2.00;;;;;26.48;54.94;100097.09;5091038;28;8830;-58
2023/09/15 10:44:03;;;;;;;;;2.00;2.00;;;;;26.15;55.39;100100.00;5091310;28;8830;-58
2023/09/15 10:46:31;;;;;;;;;4.00;3.00;;;;;25.84;55.91;100094.47;5091098;28;8850;-58
2023/09/15 10:48:59;;;;;;;;;0.00;0.00;;;;;25.67;55.52;100089.69;5092226;28;8955;-59
2023/09/15 10:51:27;;;;;;;;;3.40;2.00;;;;;25.52;55.74;100088.25;5091318;28;8935;-58
2023/09/15 10:53:56;;;;;;;;;2.00;2.00;;;;;25.38;56.60;100078.44;5091212;28;8826;-58
2023/09/15 10:56:24;;;;;;;;;3.00;2.00;;;;;25.31;56.25;100075.72;5091887;28;9634;-58
2023/09/15 10:58:52;;;;;;;;;2.60;2.00;;;;;25.26;56.37;100077.41;5091897;28;8814;-58
2023/09/15 11:01:20;;;;;;;;;1.60;0.80;;;;;25.21;55.78;100074.44;5092472;28;8877;-57
2023/09/15 11:03:48;;;;;;;;;2.00;2.00;;;;;25.14;56.21;100076.34;5092371;28;8838;-60
2023/09/15 11:06:16;;;;;;;;;2.80;2.00;;;;;25.17;56.02;100076.75;5092230;28;8834;-59
2023/09/15 11:08:43;;;;;;;;;1.20;1.20;;;;;25.52;55.21;100066.44;5092280;28;8850;-58
2023/09/15 11:11:11;;;;;;;;;2.60;2.60;;;;;25.94;53.68;100064.81;5092756;28;8822;-59
2023/09/15 11:13:39;;;;;;;;;2.00;2.00;;;;;26.31;53.03;100055.78;5092610;28;8965;-60
2023/09/15 11:16:07;;;;;;;;;2.80;2.00;;;;;26.75;52.33;100044.78;5092759;28;8876;-59
2023/09/15 11:18:35;;;;;;;;;1.60;1.60;;;;;27.26;51.51;100045.38;5093154;28;8940;-60
2023/09/15 11:21:05;;;;;;;;;2.00;2.00;;;;;27.71;50.27;100043.16;5091981;28;8848;-60
2023/09/15 11:23:33;;;;;;;;;2.00;2.00;;;;;28.00;49.43;100048.69;5092805;28;8834;-59
2023/09/15 11:26:04;;;;;;;;;2.60;2.40;;;;;28.33;49.26;100040.00;5095602;28;8930;-60
2023/09/15 11:28:52;;;;;;;;;3.00;2.40;;;;;29.05;47.58;100032.28;5095965;28;8834;-59
2023/09/15 11:31:20;;;;;;;;;1.40;1.00;;;;;29.75;46.96;100030.31;5096183;28;8884;-59
2023/09/15 11:33:48;;;;;;;;;2.80;2.00;;;;;30.36;45.43;100030.44;5096595;28;8833;-61
2023/09/15 11:36:16;;;;;;;;;3.00;3.00;;;;;30.69;45.19;100025.84;5096420;28;8834;-61
2023/09/15 11:38:45;;;;;;;;;2.00;2.00;;;;;30.84;45.32;100028.84;5096450;28;8853;-59